• Join FlightAware (Why Join?)
  • Login
  • US Flag 
03:27AM EDT


 

Airport Tracker/Info


-or-


 

Live Flight TrackerFlight Track Log ✈ SLI159 ✈ 16-Sep-2013 ✈ MMCL / CUL - MMMX / MEX

Flight Track Log - Related Links

Times and Time Zones

All times are in EDT time to prevent confusion due to time zone crossing. See the SLI159 flight status page for this flight to view local times or setup timezone preferences in your user account.

Time Position Orientation Groundspeed Altitude Reporting Facility
EDT Latitude Longitude Course Direction KTS MPH feet Rate Location/Type
07:21PM 20.0316 -99.9500 123° Southeast  Level Estimated
07:22PM 19.9471 -99.8246 126° Southeast  Level Estimated
07:23PM 19.8625 -99.6993 126° Southeast  Level Estimated
07:24PM 19.7778 -99.5742 126° Southeast  Level Estimated
07:25PM 19.6931 -99.4492 126° Southeast  Level Estimated
07:26PM 19.6082 -99.3243 126° Southeast  Level Estimated
07:27PM 19.5233 -99.1995 126° Southeast  Level Estimated
07:28PM 19.4382 -99.0749 126° Southeast  Level Estimated
07:29PM 19.4363 -99.0721 126° Southeast  Level Estimated
07:30PM 19.4363 -99.0721 43° Northeast  Level Estimated
07:31PM 19.4363 -99.0721 43° Northeast  Level Estimated
07:32PM 19.4363 -99.0721 43° Northeast  Level Estimated
07:33PM 19.4363 -99.0721 43° Northeast  Level Estimated
07:34PM 19.4363 -99.0721 43° Northeast  Level Estimated
07:35PM 19.4363 -99.0721 43° Northeast  Level Estimated
07:36PM 19.4363 -99.0721 43° Northeast  Level Estimated
07:37PM 19.4363 -99.0721 43° Northeast  Level Estimated
07:38PM 19.4363 -99.0721 43° Northeast  Level Estimated
07:39PM 19.4363 -99.0721 43° Northeast  Level Estimated
07:40PM 19.4363 -99.0721 43° Northeast  Level Estimated
07:41PM 19.4363 -99.0721 43° Northeast  Level Estimated
07:42PM 19.4363 -99.0721 43° Northeast  Level Estimated
07:43PM 19.4363 -99.0721 43° Northeast  Level Estimated
07:44PM 19.4363 -99.0721 43° Northeast  Level Estimated